Metars

EGJB - Guernsey Airport
Distance from station: SW 8km

Current
Few Clouds
Few Clouds
 Wind from WNW
Wind: WNW 16 mph , 26 km/h
Temperature: 7°C
Wind Chill: 3°C
Dew Point: 0°C
Humidity: 61%
Barometer: 1013 hPa
Clouds: Few Clouds
Visibility: 6 miles , 10 km
Cloud details: Few Clouds 610 m
2018/01/19 08:50 EGJB 190850Z 29014KT 9999 FEW020CB 07/00 Q1013
EGJA - Alderney Airport
Distance from station: NE 37km

Current
Few Clouds
Few Clouds
 Wind from WNW
Wind: WNW 18 mph , 30 km/h
Clouds: Few Clouds
Visibility: 6 miles , 10 km
Cloud details: Few Clouds 762 m
2018/01/19 08:50 EGJA 190850Z 29016KT 9999 FEW025 07/// Q1012
EGJJ - Jersey Airport
Distance from station: SE 37km

Current
Few Clouds
Few Clouds
 Wind from WNW
Wind: WNW 15 mph , 24 km/h
Temperature: 7°C
Wind Chill: 3°C
Dew Point: 3°C
Humidity: 76%
Barometer: 1013 hPa
Clouds: Few Clouds
Visibility: 6 miles , 10 km
Cloud details: Few Clouds 610 m
2018/01/19 08:50 EGJJ 190850Z 30013KT 9999 FEW020CB 07/03 Q1013